sensor_id;sensor_type;location;lat;lon;timestamp;P1;durP1;ratioP1;P2;durP2;ratioP2
13520;SDS011;6832;51.186;3.236;2023-05-02T00:02:20;38.53;;;8.47;;
13520;SDS011;6832;51.186;3.236;2023-05-02T00:04:47;51.23;;;9.80;;
13520;SDS011;6832;51.186;3.236;2023-05-02T00:07:14;23.87;;;7.57;;
13520;SDS011;6832;51.186;3.236;2023-05-02T00:09:41;26.10;;;7.80;;
13520;SDS011;6832;51.186;3.236;2023-05-02T00:12:09;26.60;;;7.87;;
13520;SDS011;6832;51.186;3.236;2023-05-02T00:14:36;25.67;;;7.23;;
13520;SDS011;6832;51.186;3.236;2023-05-02T00:17:03;35.27;;;8.70;;
13520;SDS011;6832;51.186;3.236;2023-05-02T00:19:30;30.33;;;8.00;;
13520;SDS011;6832;51.186;3.236;2023-05-02T00:21:57;26.47;;;7.60;;
13520;SDS011;6832;51.186;3.236;2023-05-02T00:24:24;21.53;;;7.00;;
13520;SDS011;6832;51.186;3.236;2023-05-02T00:26:52;27.03;;;7.53;;
13520;SDS011;6832;51.186;3.236;2023-05-02T00:29:20;34.23;;;8.73;;
13520;SDS011;6832;51.186;3.236;2023-05-02T00:31:47;32.03;;;8.77;;
13520;SDS011;6832;51.186;3.236;2023-05-02T00:34:14;23.30;;;7.70;;
13520;SDS011;6832;51.186;3.236;2023-05-02T00:36:41;31.43;;;8.17;;
13520;SDS011;6832;51.186;3.236;2023-05-02T00:39:11;40.27;;;8.93;;
13520;SDS011;6832;51.186;3.236;2023-05-02T00:41:38;26.57;;;8.23;;
13520;SDS011;6832;51.186;3.236;2023-05-02T00:44:05;26.20;;;8.40;;
13520;SDS011;6832;51.186;3.236;2023-05-02T00:46:34;34.93;;;8.97;;
13520;SDS011;6832;51.186;3.236;2023-05-02T00:49:01;38.83;;;8.73;;
13520;SDS011;6832;51.186;3.236;2023-05-02T00:51:28;28.27;;;8.40;;
13520;SDS011;6832;51.186;3.236;2023-05-02T00:53:55;35.30;;;8.80;;
13520;SDS011;6832;51.186;3.236;2023-05-02T00:56:22;28.63;;;8.47;;
13520;SDS011;6832;51.186;3.236;2023-05-02T00:58:49;31.53;;;8.83;;
13520;SDS011;6832;51.186;3.236;2023-05-02T01:01:21;28.10;;;7.90;;
13520;SDS011;6832;51.186;3.236;2023-05-02T01:04:03;59.77;;;11.17;;
13520;SDS011;6832;51.186;3.236;2023-05-02T01:06:42;44.73;;;9.27;;
13520;SDS011;6832;51.186;3.236;2023-05-02T01:09:25;38.63;;;9.00;;
13520;SDS011;6832;51.186;3.236;2023-05-02T01:12:00;30.67;;;8.10;;
13520;SDS011;6832;51.186;3.236;2023-05-02T01:14:32;32.00;;;9.37;;
13520;SDS011;6832;51.186;3.236;2023-05-02T01:17:07;29.10;;;8.50;;
13520;SDS011;6832;51.186;3.236;2023-05-02T01:19:39;27.60;;;8.67;;
13520;SDS011;6832;51.186;3.236;2023-05-02T01:22:10;30.87;;;8.30;;
13520;SDS011;6832;51.186;3.236;2023-05-02T01:24:40;28.67;;;8.57;;
13520;SDS011;6832;51.186;3.236;2023-05-02T01:27:14;29.10;;;8.10;;
13520;SDS011;6832;51.186;3.236;2023-05-02T01:29:55;28.47;;;8.67;;
13520;SDS011;6832;51.186;3.236;2023-05-02T01:32:25;28.83;;;8.40;;
13520;SDS011;6832;51.186;3.236;2023-05-02T01:34:55;26.20;;;8.43;;
13520;SDS011;6832;51.186;3.236;2023-05-02T01:37:23;32.20;;;8.60;;
13520;SDS011;6832;51.186;3.236;2023-05-02T01:39:52;24.93;;;8.43;;
13520;SDS011;6832;51.186;3.236;2023-05-02T01:42:21;45.13;;;10.17;;
13520;SDS011;6832;51.186;3.236;2023-05-02T01:44:50;43.33;;;10.23;;
13520;SDS011;6832;51.186;3.236;2023-05-02T01:47:21;31.93;;;9.10;;
13520;SDS011;6832;51.186;3.236;2023-05-02T01:49:51;45.57;;;10.23;;
13520;SDS011;6832;51.186;3.236;2023-05-02T01:52:18;31.93;;;9.50;;
13520;SDS011;6832;51.186;3.236;2023-05-02T01:54:48;27.90;;;8.93;;
13520;SDS011;6832;51.186;3.236;2023-05-02T01:57:17;28.10;;;8.77;;
13520;SDS011;6832;51.186;3.236;2023-05-02T01:59:45;20.23;;;9.00;;
13520;SDS011;6832;51.186;3.236;2023-05-02T02:02:14;28.30;;;8.60;;
13520;SDS011;6832;51.186;3.236;2023-05-02T02:04:44;29.43;;;9.17;;
13520;SDS011;6832;51.186;3.236;2023-05-02T02:07:12;25.10;;;8.63;;
13520;SDS011;6832;51.186;3.236;2023-05-02T02:09:39;29.40;;;9.33;;
13520;SDS011;6832;51.186;3.236;2023-05-02T02:12:07;28.33;;;9.20;;
13520;SDS011;6832;51.186;3.236;2023-05-02T02:14:38;29.07;;;8.90;;
13520;SDS011;6832;51.186;3.236;2023-05-02T02:17:11;23.43;;;8.33;;
13520;SDS011;6832;51.186;3.236;2023-05-02T02:19:40;34.23;;;9.83;;
13520;SDS011;6832;51.186;3.236;2023-05-02T02:22:09;30.67;;;8.90;;
13520;SDS011;6832;51.186;3.236;2023-05-02T02:24:39;28.67;;;9.73;;
13520;SDS011;6832;51.186;3.236;2023-05-02T02:27:06;34.47;;;9.43;;
13520;SDS011;6832;51.186;3.236;2023-05-02T02:29:33;35.37;;;9.90;;
13520;SDS011;6832;51.186;3.236;2023-05-02T02:32:01;25.50;;;8.57;;
13520;SDS011;6832;51.186;3.236;2023-05-02T02:34:28;31.10;;;9.73;;
13520;SDS011;6832;51.186;3.236;2023-05-02T02:36:56;27.20;;;8.90;;
13520;SDS011;6832;51.186;3.236;2023-05-02T02:39:41;31.00;;;10.07;;
13520;SDS011;6832;51.186;3.236;2023-05-02T02:42:17;36.73;;;9.87;;
13520;SDS011;6832;51.186;3.236;2023-05-02T02:44:53;31.13;;;9.17;;
13520;SDS011;6832;51.186;3.236;2023-05-02T02:47:27;24.53;;;8.97;;
13520;SDS011;6832;51.186;3.236;2023-05-02T02:50:05;27.30;;;8.67;;
13520;SDS011;6832;51.186;3.236;2023-05-02T02:52:46;30.10;;;8.77;;
13520;SDS011;6832;51.186;3.236;2023-05-02T02:55:22;32.83;;;8.93;;
13520;SDS011;6832;51.186;3.236;2023-05-02T02:57:58;29.07;;;8.67;;
13520;SDS011;6832;51.186;3.236;2023-05-02T03:00:27;27.70;;;8.83;;
13520;SDS011;6832;51.186;3.236;2023-05-02T03:02:55;27.20;;;8.07;;
13520;SDS011;6832;51.186;3.236;2023-05-02T03:05:22;30.53;;;8.23;;
13520;SDS011;6832;51.186;3.236;2023-05-02T03:07:50;26.60;;;8.17;;
13520;SDS011;6832;51.186;3.236;2023-05-02T03:10:17;33.87;;;8.87;;
13520;SDS011;6832;51.186;3.236;2023-05-02T03:12:45;40.00;;;9.60;;
13520;SDS011;6832;51.186;3.236;2023-05-02T03:15:22;26.03;;;8.70;;
13520;SDS011;6832;51.186;3.236;2023-05-02T03:18:05;41.57;;;8.70;;
13520;SDS011;6832;51.186;3.236;2023-05-02T03:20:32;27.07;;;7.83;;
13520;SDS011;6832;51.186;3.236;2023-05-02T03:22:59;32.10;;;8.93;;
13520;SDS011;6832;51.186;3.236;2023-05-02T03:25:25;31.00;;;8.23;;
13520;SDS011;6832;51.186;3.236;2023-05-02T03:27:54;23.43;;;7.27;;
13520;SDS011;6832;51.186;3.236;2023-05-02T03:30:22;25.87;;;7.50;;
13520;SDS011;6832;51.186;3.236;2023-05-02T03:32:49;28.10;;;7.23;;
13520;SDS011;6832;51.186;3.236;2023-05-02T03:35:16;34.70;;;8.13;;
13520;SDS011;6832;51.186;3.236;2023-05-02T03:37:43;27.33;;;7.60;;
13520;SDS011;6832;51.186;3.236;2023-05-02T03:40:10;39.63;;;8.67;;
13520;SDS011;6832;51.186;3.236;2023-05-02T03:42:40;25.67;;;6.90;;
13520;SDS011;6832;51.186;3.236;2023-05-02T03:45:10;26.67;;;7.73;;
13520;SDS011;6832;51.186;3.236;2023-05-02T03:47:37;26.73;;;7.27;;
13520;SDS011;6832;51.186;3.236;2023-05-02T03:50:05;43.53;;;8.27;;
13520;SDS011;6832;51.186;3.236;2023-05-02T03:52:33;25.50;;;7.67;;
13520;SDS011;6832;51.186;3.236;2023-05-02T03:55:00;28.17;;;7.17;;
13520;SDS011;6832;51.186;3.236;2023-05-02T03:57:28;26.37;;;7.10;;
13520;SDS011;6832;51.186;3.236;2023-05-02T03:59:55;40.63;;;7.67;;
13520;SDS011;6832;51.186;3.236;2023-05-02T04:02:24;24.00;;;6.43;;
13520;SDS011;6832;51.186;3.236;2023-05-02T04:04:51;25.43;;;6.83;;
13520;SDS011;6832;51.186;3.236;2023-05-02T04:07:18;25.20;;;6.57;;
13520;SDS011;6832;51.186;3.236;2023-05-02T04:09:45;23.37;;;5.87;;
13520;SDS011;6832;51.186;3.236;2023-05-02T04:12:13;30.93;;;6.93;;
13520;SDS011;6832;51.186;3.236;2023-05-02T04:14:40;27.40;;;7.47;;
13520;SDS011;6832;51.186;3.236;2023-05-02T04:17:07;25.07;;;6.37;;
13520;SDS011;6832;51.186;3.236;2023-05-02T04:19:38;26.17;;;6.07;;
13520;SDS011;6832;51.186;3.236;2023-05-02T04:22:07;31.97;;;7.37;;
13520;SDS011;6832;51.186;3.236;2023-05-02T04:24:34;28.07;;;6.33;;
13520;SDS011;6832;51.186;3.236;2023-05-02T04:27:01;34.40;;;7.23;;
13520;SDS011;6832;51.186;3.236;2023-05-02T04:29:28;43.33;;;7.23;;
13520;SDS011;6832;51.186;3.236;2023-05-02T04:31:55;28.70;;;6.73;;
13520;SDS011;6832;51.186;3.236;2023-05-02T04:34:22;27.37;;;6.63;;
13520;SDS011;6832;51.186;3.236;2023-05-02T04:36:51;37.80;;;7.20;;
13520;SDS011;6832;51.186;3.236;2023-05-02T04:39:18;37.43;;;7.00;;
13520;SDS011;6832;51.186;3.236;2023-05-02T04:41:45;27.17;;;6.57;;
13520;SDS011;6832;51.186;3.236;2023-05-02T04:44:12;35.13;;;7.10;;
13520;SDS011;6832;51.186;3.236;2023-05-02T04:46:39;33.37;;;6.83;;
13520;SDS011;6832;51.186;3.236;2023-05-02T04:49:06;59.93;;;8.90;;
13520;SDS011;6832;51.186;3.236;2023-05-02T04:51:34;35.33;;;7.20;;
13520;SDS011;6832;51.186;3.236;2023-05-02T04:54:02;24.90;;;6.10;;
13520;SDS011;6832;51.186;3.236;2023-05-02T04:56:29;26.27;;;6.17;;
13520;SDS011;6832;51.186;3.236;2023-05-02T04:58:56;30.70;;;6.80;;
13520;SDS011;6832;51.186;3.236;2023-05-02T05:01:24;72.40;;;10.20;;
13520;SDS011;6832;51.186;3.236;2023-05-02T05:03:52;29.07;;;6.37;;
13520;SDS011;6832;51.186;3.236;2023-05-02T05:06:19;31.50;;;6.70;;
13520;SDS011;6832;51.186;3.236;2023-05-02T05:08:46;29.17;;;6.87;;
13520;SDS011;6832;51.186;3.236;2023-05-02T05:11:15;20.93;;;5.70;;
13520;SDS011;6832;51.186;3.236;2023-05-02T05:13:43;31.53;;;6.63;;
13520;SDS011;6832;51.186;3.236;2023-05-02T05:16:10;32.07;;;7.20;;
13520;SDS011;6832;51.186;3.236;2023-05-02T05:18:37;32.90;;;7.23;;
13520;SDS011;6832;51.186;3.236;2023-05-02T05:21:05;33.50;;;7.50;;
13520;SDS011;6832;51.186;3.236;2023-05-02T05:23:32;51.57;;;8.83;;
13520;SDS011;6832;51.186;3.236;2023-05-02T05:26:07;35.80;;;7.57;;
13520;SDS011;6832;51.186;3.236;2023-05-02T05:28:36;41.20;;;7.93;;
13520;SDS011;6832;51.186;3.236;2023-05-02T05:31:04;41.83;;;7.77;;
13520;SDS011;6832;51.186;3.236;2023-05-02T05:33:32;35.80;;;7.47;;
13520;SDS011;6832;51.186;3.236;2023-05-02T05:36:02;55.00;;;8.90;;
13520;SDS011;6832;51.186;3.236;2023-05-02T05:38:31;40.57;;;8.37;;
13520;SDS011;6832;51.186;3.236;2023-05-02T05:40:59;31.23;;;6.50;;
13520;SDS011;6832;51.186;3.236;2023-05-02T05:43:27;45.13;;;7.70;;
13520;SDS011;6832;51.186;3.236;2023-05-02T05:45:55;46.83;;;8.20;;
13520;SDS011;6832;51.186;3.236;2023-05-02T05:48:23;39.07;;;7.70;;
13520;SDS011;6832;51.186;3.236;2023-05-02T05:50:50;36.73;;;7.67;;
13520;SDS011;6832;51.186;3.236;2023-05-02T05:53:17;27.50;;;6.80;;
13520;SDS011;6832;51.186;3.236;2023-05-02T05:55:44;32.50;;;6.87;;
13520;SDS011;6832;51.186;3.236;2023-05-02T05:58:11;38.10;;;7.73;;
13520;SDS011;6832;51.186;3.236;2023-05-02T06:00:39;34.20;;;7.00;;
13520;SDS011;6832;51.186;3.236;2023-05-02T06:03:10;30.70;;;6.77;;
13520;SDS011;6832;51.186;3.236;2023-05-02T06:05:38;33.63;;;7.27;;
13520;SDS011;6832;51.186;3.236;2023-05-02T06:08:05;31.17;;;7.60;;
13520;SDS011;6832;51.186;3.236;2023-05-02T06:10:32;40.00;;;8.03;;
13520;SDS011;6832;51.186;3.236;2023-05-02T06:12:59;36.07;;;7.67;;
13520;SDS011;6832;51.186;3.236;2023-05-02T06:15:26;35.53;;;8.03;;
13520;SDS011;6832;51.186;3.236;2023-05-02T06:17:53;22.47;;;6.90;;
13520;SDS011;6832;51.186;3.236;2023-05-02T06:20:22;30.13;;;7.30;;
13520;SDS011;6832;51.186;3.236;2023-05-02T06:22:49;37.70;;;7.70;;
13520;SDS011;6832;51.186;3.236;2023-05-02T06:25:16;38.43;;;7.43;;
13520;SDS011;6832;51.186;3.236;2023-05-02T06:27:43;30.83;;;7.17;;
13520;SDS011;6832;51.186;3.236;2023-05-02T06:30:10;34.67;;;7.50;;
13520;SDS011;6832;51.186;3.236;2023-05-02T06:32:37;32.57;;;7.27;;
13520;SDS011;6832;51.186;3.236;2023-05-02T06:35:06;45.90;;;7.93;;
13520;SDS011;6832;51.186;3.236;2023-05-02T06:37:35;29.57;;;6.67;;
13520;SDS011;6832;51.186;3.236;2023-05-02T06:40:02;48.23;;;8.40;;
13520;SDS011;6832;51.186;3.236;2023-05-02T06:42:29;29.60;;;7.23;;
13520;SDS011;6832;51.186;3.236;2023-05-02T06:44:56;47.13;;;8.33;;
13520;SDS011;6832;51.186;3.236;2023-05-02T06:47:23;24.43;;;6.33;;
13520;SDS011;6832;51.186;3.236;2023-05-02T06:49:50;34.70;;;6.80;;
13520;SDS011;6832;51.186;3.236;2023-05-02T06:52:18;35.37;;;6.60;;
13520;SDS011;6832;51.186;3.236;2023-05-02T06:54:50;41.63;;;7.00;;
13520;SDS011;6832;51.186;3.236;2023-05-02T06:57:17;43.47;;;7.23;;
13520;SDS011;6832;51.186;3.236;2023-05-02T06:59:44;34.70;;;6.83;;
13520;SDS011;6832;51.186;3.236;2023-05-02T07:02:12;43.23;;;7.30;;
13520;SDS011;6832;51.186;3.236;2023-05-02T07:04:39;46.30;;;7.90;;
13520;SDS011;6832;51.186;3.236;2023-05-02T07:07:05;32.50;;;6.83;;
13520;SDS011;6832;51.186;3.236;2023-05-02T07:09:32;47.17;;;7.60;;
13520;SDS011;6832;51.186;3.236;2023-05-02T07:12:01;38.47;;;6.70;;
13520;SDS011;6832;51.186;3.236;2023-05-02T07:14:28;32.47;;;6.70;;
13520;SDS011;6832;51.186;3.236;2023-05-02T07:16:57;32.67;;;6.40;;
13520;SDS011;6832;51.186;3.236;2023-05-02T07:19:24;19.57;;;5.90;;
13520;SDS011;6832;51.186;3.236;2023-05-02T07:21:51;31.00;;;6.33;;
13520;SDS011;6832;51.186;3.236;2023-05-02T07:24:18;24.37;;;5.80;;
13520;SDS011;6832;51.186;3.236;2023-05-02T07:26:45;36.27;;;7.27;;
13520;SDS011;6832;51.186;3.236;2023-05-02T07:29:14;34.30;;;6.67;;
13520;SDS011;6832;51.186;3.236;2023-05-02T07:31:40;30.03;;;5.83;;
13520;SDS011;6832;51.186;3.236;2023-05-02T07:34:07;43.13;;;7.37;;
13520;SDS011;6832;51.186;3.236;2023-05-02T07:36:34;47.57;;;7.73;;
13520;SDS011;6832;51.186;3.236;2023-05-02T07:39:01;29.70;;;5.97;;
13520;SDS011;6832;51.186;3.236;2023-05-02T07:41:29;28.73;;;5.93;;
13520;SDS011;6832;51.186;3.236;2023-05-02T07:43:56;50.80;;;7.87;;
13520;SDS011;6832;51.186;3.236;2023-05-02T07:46:24;30.77;;;6.57;;
13520;SDS011;6832;51.186;3.236;2023-05-02T07:49:00;31.70;;;6.33;;
13520;SDS011;6832;51.186;3.236;2023-05-02T07:51:28;35.07;;;6.47;;
13520;SDS011;6832;51.186;3.236;2023-05-02T07:53:56;32.20;;;6.73;;
13520;SDS011;6832;51.186;3.236;2023-05-02T07:56:30;63.60;;;9.57;;
13520;SDS011;6832;51.186;3.236;2023-05-02T07:58:58;65.60;;;9.97;;
13520;SDS011;6832;51.186;3.236;2023-05-02T08:01:27;50.63;;;8.30;;
13520;SDS011;6832;51.186;3.236;2023-05-02T08:03:54;60.63;;;8.87;;
13520;SDS011;6832;51.186;3.236;2023-05-02T08:06:21;36.50;;;7.27;;
13520;SDS011;6832;51.186;3.236;2023-05-02T08:08:48;39.23;;;7.33;;
13520;SDS011;6832;51.186;3.236;2023-05-02T08:11:15;50.93;;;8.27;;
13520;SDS011;6832;51.186;3.236;2023-05-02T08:13:43;39.90;;;7.13;;
13520;SDS011;6832;51.186;3.236;2023-05-02T08:16:10;49.07;;;8.27;;
13520;SDS011;6832;51.186;3.236;2023-05-02T08:18:38;36.83;;;6.93;;
13520;SDS011;6832;51.186;3.236;2023-05-02T08:21:06;44.20;;;7.67;;
13520;SDS011;6832;51.186;3.236;2023-05-02T08:23:33;36.17;;;7.30;;
13520;SDS011;6832;51.186;3.236;2023-05-02T08:26:01;45.90;;;8.13;;
13520;SDS011;6832;51.186;3.236;2023-05-02T08:28:28;41.97;;;7.07;;
13520;SDS011;6832;51.186;3.236;2023-05-02T08:30:55;35.27;;;7.30;;
13520;SDS011;6832;51.186;3.236;2023-05-02T08:33:22;41.53;;;7.47;;
13520;SDS011;6832;51.186;3.236;2023-05-02T08:35:51;53.13;;;8.17;;
13520;SDS011;6832;51.186;3.236;2023-05-02T08:38:18;44.17;;;7.43;;
13520;SDS011;6832;51.186;3.236;2023-05-02T08:40:45;50.50;;;7.83;;
13520;SDS011;6832;51.186;3.236;2023-05-02T08:43:15;34.37;;;6.57;;
13520;SDS011;6832;51.186;3.236;2023-05-02T08:45:43;28.87;;;6.23;;
13520;SDS011;6832;51.186;3.236;2023-05-02T08:48:11;33.00;;;6.80;;
13520;SDS011;6832;51.186;3.236;2023-05-02T08:50:41;39.07;;;7.23;;
13520;SDS011;6832;51.186;3.236;2023-05-02T08:53:13;32.67;;;6.23;;
13520;SDS011;6832;51.186;3.236;2023-05-02T08:55:41;50.83;;;7.83;;
13520;SDS011;6832;51.186;3.236;2023-05-02T08:58:09;24.00;;;6.13;;
13520;SDS011;6832;51.186;3.236;2023-05-02T09:00:37;25.63;;;5.90;;
13520;SDS011;6832;51.186;3.236;2023-05-02T09:03:06;21.07;;;5.37;;
13520;SDS011;6832;51.186;3.236;2023-05-02T09:08:40;15.33;;;4.93;;
13520;SDS011;6832;51.186;3.236;2023-05-02T09:11:09;20.33;;;5.30;;
13520;SDS011;6832;51.186;3.236;2023-05-02T09:13:37;15.97;;;5.10;;
13520;SDS011;6832;51.186;3.236;2023-05-02T09:16:07;25.97;;;5.57;;
13520;SDS011;6832;51.186;3.236;2023-05-02T09:18:39;16.00;;;5.07;;
13520;SDS011;6832;51.186;3.236;2023-05-02T09:21:14;39.27;;;6.73;;
13520;SDS011;6832;51.186;3.236;2023-05-02T09:23:44;19.53;;;5.13;;
13520;SDS011;6832;51.186;3.236;2023-05-02T09:26:13;29.23;;;5.97;;
13520;SDS011;6832;51.186;3.236;2023-05-02T09:28:42;19.67;;;5.23;;
13520;SDS011;6832;51.186;3.236;2023-05-02T09:31:10;28.17;;;5.73;;
13520;SDS011;6832;51.186;3.236;2023-05-02T09:33:38;22.37;;;5.33;;
13520;SDS011;6832;51.186;3.236;2023-05-02T09:36:06;18.10;;;5.10;;
13520;SDS011;6832;51.186;3.236;2023-05-02T09:38:34;28.67;;;6.30;;
13520;SDS011;6832;51.186;3.236;2023-05-02T09:41:03;35.63;;;6.53;;
13520;SDS011;6832;51.186;3.236;2023-05-02T09:43:30;34.57;;;7.00;;
13520;SDS011;6832;51.186;3.236;2023-05-02T09:45:58;21.33;;;5.23;;
13520;SDS011;6832;51.186;3.236;2023-05-02T09:48:31;39.90;;;6.37;;
13520;SDS011;6832;51.186;3.236;2023-05-02T09:51:23;47.77;;;7.10;;
13520;SDS011;6832;51.186;3.236;2023-05-02T09:53:53;29.67;;;5.67;;
13520;SDS011;6832;51.186;3.236;2023-05-02T09:56:23;42.00;;;6.33;;
13520;SDS011;6832;51.186;3.236;2023-05-02T09:58:50;32.03;;;6.37;;
13520;SDS011;6832;51.186;3.236;2023-05-02T10:01:17;28.13;;;5.90;;
13520;SDS011;6832;51.186;3.236;2023-05-02T10:03:46;26.63;;;5.43;;
13520;SDS011;6832;51.186;3.236;2023-05-02T10:06:14;27.97;;;5.80;;
13520;SDS011;6832;51.186;3.236;2023-05-02T10:08:42;36.87;;;7.13;;
13520;SDS011;6832;51.186;3.236;2023-05-02T10:11:11;23.93;;;5.43;;
13520;SDS011;6832;51.186;3.236;2023-05-02T10:13:40;41.07;;;6.77;;
13520;SDS011;6832;51.186;3.236;2023-05-02T10:16:10;40.20;;;7.37;;
13520;SDS011;6832;51.186;3.236;2023-05-02T10:18:39;34.10;;;6.43;;
13520;SDS011;6832;51.186;3.236;2023-05-02T10:21:13;43.63;;;7.20;;
13520;SDS011;6832;51.186;3.236;2023-05-02T10:23:42;33.50;;;6.27;;
13520;SDS011;6832;51.186;3.236;2023-05-02T10:26:11;28.33;;;6.07;;
13520;SDS011;6832;51.186;3.236;2023-05-02T10:28:44;33.70;;;6.47;;
13520;SDS011;6832;51.186;3.236;2023-05-02T10:31:13;24.00;;;5.87;;
13520;SDS011;6832;51.186;3.236;2023-05-02T10:33:41;25.83;;;5.30;;
13520;SDS011;6832;51.186;3.236;2023-05-02T10:36:09;24.13;;;5.53;;
13520;SDS011;6832;51.186;3.236;2023-05-02T10:38:37;34.10;;;6.00;;
13520;SDS011;6832;51.186;3.236;2023-05-02T10:41:06;34.40;;;6.57;;
13520;SDS011;6832;51.186;3.236;2023-05-02T10:43:35;27.80;;;5.93;;
13520;SDS011;6832;51.186;3.236;2023-05-02T10:49:00;26.73;;;6.17;;
13520;SDS011;6832;51.186;3.236;2023-05-02T10:51:29;50.43;;;7.63;;
13520;SDS011;6832;51.186;3.236;2023-05-02T10:57:03;44.77;;;7.37;;
13520;SDS011;6832;51.186;3.236;2023-05-02T10:59:33;30.93;;;6.57;;
13520;SDS011;6832;51.186;3.236;2023-05-02T11:02:03;29.03;;;5.93;;
13520;SDS011;6832;51.186;3.236;2023-05-02T11:07:28;23.90;;;5.67;;
13520;SDS011;6832;51.186;3.236;2023-05-02T11:12:57;14.17;;;4.70;;
13520;SDS011;6832;51.186;3.236;2023-05-02T11:18:23;26.47;;;6.10;;
13520;SDS011;6832;51.186;3.236;2023-05-02T11:20:50;34.50;;;6.40;;
13520;SDS011;6832;51.186;3.236;2023-05-02T11:23:23;22.73;;;5.87;;
13520;SDS011;6832;51.186;3.236;2023-05-02T11:25:53;28.07;;;6.07;;
13520;SDS011;6832;51.186;3.236;2023-05-02T11:34:40;19.03;;;5.37;;
13520;SDS011;6832;51.186;3.236;2023-05-02T11:37:11;30.67;;;6.30;;
13520;SDS011;6832;51.186;3.236;2023-05-02T11:39:39;40.37;;;6.87;;
13520;SDS011;6832;51.186;3.236;2023-05-02T11:42:07;61.37;;;8.73;;
13520;SDS011;6832;51.186;3.236;2023-05-02T11:44:35;22.13;;;5.23;;
13520;SDS011;6832;51.186;3.236;2023-05-02T11:47:21;44.57;;;6.83;;
13520;SDS011;6832;51.186;3.236;2023-05-02T11:49:50;27.10;;;5.50;;
13520;SDS011;6832;51.186;3.236;2023-05-02T11:52:17;23.83;;;5.40;;
13520;SDS011;6832;51.186;3.236;2023-05-02T11:54:46;38.77;;;6.67;;
13520;SDS011;6832;51.186;3.236;2023-05-02T11:57:13;26.73;;;5.33;;
13520;SDS011;6832;51.186;3.236;2023-05-02T12:02:34;23.97;;;5.33;;
13520;SDS011;6832;51.186;3.236;2023-05-02T12:05:03;26.60;;;6.03;;
13520;SDS011;6832;51.186;3.236;2023-05-02T12:07:35;44.37;;;7.00;;
13520;SDS011;6832;51.186;3.236;2023-05-02T12:10:02;28.90;;;5.57;;
13520;SDS011;6832;51.186;3.236;2023-05-02T12:12:30;69.50;;;9.50;;
13520;SDS011;6832;51.186;3.236;2023-05-02T12:15:00;36.50;;;6.83;;
13520;SDS011;6832;51.186;3.236;2023-05-02T12:17:29;34.83;;;6.40;;
13520;SDS011;6832;51.186;3.236;2023-05-02T12:19:56;31.07;;;6.00;;
13520;SDS011;6832;51.186;3.236;2023-05-02T12:22:25;36.73;;;6.70;;
13520;SDS011;6832;51.186;3.236;2023-05-02T12:24:53;27.00;;;5.63;;
13520;SDS011;6832;51.186;3.236;2023-05-02T12:27:20;30.43;;;5.37;;
13520;SDS011;6832;51.186;3.236;2023-05-02T12:29:47;28.47;;;5.83;;
13520;SDS011;6832;51.186;3.236;2023-05-02T12:32:25;32.33;;;6.07;;
13520;SDS011;6832;51.186;3.236;2023-05-02T12:34:53;35.03;;;6.10;;
13520;SDS011;6832;51.186;3.236;2023-05-02T12:37:21;26.40;;;6.00;;
13520;SDS011;6832;51.186;3.236;2023-05-02T12:39:50;23.90;;;5.33;;
13520;SDS011;6832;51.186;3.236;2023-05-02T12:42:18;39.50;;;6.77;;
13520;SDS011;6832;51.186;3.236;2023-05-02T12:44:48;13.40;;;4.27;;
13520;SDS011;6832;51.186;3.236;2023-05-02T12:47:17;25.07;;;5.27;;
13520;SDS011;6832;51.186;3.236;2023-05-02T12:49:48;24.60;;;5.67;;
13520;SDS011;6832;51.186;3.236;2023-05-02T12:52:16;46.07;;;7.13;;
13520;SDS011;6832;51.186;3.236;2023-05-02T12:54:45;28.83;;;5.77;;
13520;SDS011;6832;51.186;3.236;2023-05-02T12:57:23;25.40;;;5.30;;
13520;SDS011;6832;51.186;3.236;2023-05-02T12:59:50;33.60;;;6.13;;
13520;SDS011;6832;51.186;3.236;2023-05-02T13:02:18;40.70;;;7.13;;
13520;SDS011;6832;51.186;3.236;2023-05-02T13:04:46;29.33;;;6.33;;
13520;SDS011;6832;51.186;3.236;2023-05-02T13:07:13;39.47;;;6.70;;
13520;SDS011;6832;51.186;3.236;2023-05-02T13:09:40;29.40;;;6.00;;
13520;SDS011;6832;51.186;3.236;2023-05-02T13:12:07;26.20;;;5.77;;
13520;SDS011;6832;51.186;3.236;2023-05-02T13:14:36;21.67;;;5.17;;
13520;SDS011;6832;51.186;3.236;2023-05-02T13:17:03;19.37;;;4.87;;
13520;SDS011;6832;51.186;3.236;2023-05-02T13:19:32;23.90;;;5.17;;
13520;SDS011;6832;51.186;3.236;2023-05-02T13:21:59;26.83;;;5.43;;
13520;SDS011;6832;51.186;3.236;2023-05-02T13:24:27;26.10;;;5.43;;
13520;SDS011;6832;51.186;3.236;2023-05-02T13:26:53;34.10;;;6.37;;
13520;SDS011;6832;51.186;3.236;2023-05-02T13:29:20;22.23;;;5.17;;
13520;SDS011;6832;51.186;3.236;2023-05-02T13:31:49;23.67;;;4.83;;
13520;SDS011;6832;51.186;3.236;2023-05-02T13:34:16;25.90;;;5.10;;
13520;SDS011;6832;51.186;3.236;2023-05-02T13:36:43;23.53;;;5.63;;
13520;SDS011;6832;51.186;3.236;2023-05-02T13:39:11;28.40;;;6.13;;
13520;SDS011;6832;51.186;3.236;2023-05-02T13:41:38;23.33;;;5.37;;
13520;SDS011;6832;51.186;3.236;2023-05-02T13:44:05;26.67;;;5.87;;
13520;SDS011;6832;51.186;3.236;2023-05-02T13:46:33;18.87;;;4.60;;
13520;SDS011;6832;51.186;3.236;2023-05-02T13:49:03;28.83;;;5.53;;
13520;SDS011;6832;51.186;3.236;2023-05-02T13:51:30;25.53;;;5.30;;
13520;SDS011;6832;51.186;3.236;2023-05-02T13:53:57;24.00;;;4.97;;
13520;SDS011;6832;51.186;3.236;2023-05-02T13:56:25;23.30;;;5.43;;
13520;SDS011;6832;51.186;3.236;2023-05-02T13:58:52;34.23;;;6.10;;
13520;SDS011;6832;51.186;3.236;2023-05-02T14:01:21;39.37;;;6.67;;
13520;SDS011;6832;51.186;3.236;2023-05-02T14:03:50;61.67;;;8.63;;
13520;SDS011;6832;51.186;3.236;2023-05-02T14:06:19;34.63;;;6.10;;
13520;SDS011;6832;51.186;3.236;2023-05-02T14:08:46;41.97;;;7.20;;
13520;SDS011;6832;51.186;3.236;2023-05-02T14:11:15;51.57;;;7.60;;
13520;SDS011;6832;51.186;3.236;2023-05-02T14:13:42;25.23;;;5.00;;
13520;SDS011;6832;51.186;3.236;2023-05-02T14:16:09;31.93;;;6.10;;
13520;SDS011;6832;51.186;3.236;2023-05-02T14:18:36;46.00;;;7.30;;
13520;SDS011;6832;51.186;3.236;2023-05-02T14:21:03;32.90;;;6.40;;
13520;SDS011;6832;51.186;3.236;2023-05-02T14:23:32;27.70;;;5.83;;
13520;SDS011;6832;51.186;3.236;2023-05-02T14:26:01;26.67;;;5.23;;
13520;SDS011;6832;51.186;3.236;2023-05-02T14:28:28;41.63;;;6.83;;
13520;SDS011;6832;51.186;3.236;2023-05-02T14:30:55;48.03;;;8.20;;
13520;SDS011;6832;51.186;3.236;2023-05-02T14:33:22;25.83;;;5.90;;
13520;SDS011;6832;51.186;3.236;2023-05-02T14:35:49;58.50;;;8.33;;
13520;SDS011;6832;51.186;3.236;2023-05-02T14:38:16;45.70;;;7.80;;
13520;SDS011;6832;51.186;3.236;2023-05-02T14:40:45;23.37;;;5.30;;
13520;SDS011;6832;51.186;3.236;2023-05-02T14:43:12;31.53;;;6.43;;
13520;SDS011;6832;51.186;3.236;2023-05-02T14:45:39;21.60;;;4.93;;
13520;SDS011;6832;51.186;3.236;2023-05-02T14:48:06;23.07;;;4.97;;
13520;SDS011;6832;51.186;3.236;2023-05-02T14:50:35;38.27;;;7.03;;
13520;SDS011;6832;51.186;3.236;2023-05-02T14:53:04;30.17;;;5.80;;
13520;SDS011;6832;51.186;3.236;2023-05-02T14:55:34;26.33;;;5.73;;
13520;SDS011;6832;51.186;3.236;2023-05-02T14:58:04;25.37;;;5.50;;
13520;SDS011;6832;51.186;3.236;2023-05-02T15:00:32;31.50;;;6.00;;
13520;SDS011;6832;51.186;3.236;2023-05-02T15:03:02;27.50;;;5.63;;
13520;SDS011;6832;51.186;3.236;2023-05-02T15:05:32;28.57;;;5.93;;
13520;SDS011;6832;51.186;3.236;2023-05-02T15:08:01;28.30;;;5.53;;
13520;SDS011;6832;51.186;3.236;2023-05-02T15:10:28;41.57;;;6.77;;
13520;SDS011;6832;51.186;3.236;2023-05-02T15:12:55;24.07;;;5.37;;
13520;SDS011;6832;51.186;3.236;2023-05-02T15:15:24;29.53;;;5.73;;
13520;SDS011;6832;51.186;3.236;2023-05-02T15:17:51;26.97;;;5.80;;
13520;SDS011;6832;51.186;3.236;2023-05-02T15:20:18;24.37;;;5.23;;
13520;SDS011;6832;51.186;3.236;2023-05-02T15:22:45;48.13;;;7.17;;
13520;SDS011;6832;51.186;3.236;2023-05-02T15:25:13;23.03;;;5.53;;